createdAt,value
2018-01-23T00:00:51.141Z,33.75
2018-01-23T00:03:21.894Z,28.40
2018-01-23T00:05:49.361Z,25.20
2018-01-23T00:08:16.058Z,27.23
2018-01-23T00:10:42.844Z,29.70
2018-01-23T00:13:09.555Z,26.08
2018-01-23T00:15:36.263Z,28.30
2018-01-23T00:18:03.065Z,25.85
2018-01-23T00:20:31.582Z,28.08
2018-01-23T00:22:58.271Z,30.70
2018-01-23T00:25:28.694Z,34.25
2018-01-23T00:27:56.259Z,32.65
2018-01-23T00:30:23.012Z,34.78
2018-01-23T00:32:49.709Z,36.85
2018-01-23T00:35:16.376Z,36.78
2018-01-23T00:37:46.930Z,37.95
2018-01-23T00:40:24.336Z,33.28
2018-01-23T00:42:51.123Z,31.62
2018-01-23T00:45:17.818Z,38.75
2018-01-23T00:47:54.772Z,32.55
2018-01-23T00:50:21.544Z,32.17
2018-01-23T00:52:48.199Z,31.30
2018-01-23T00:55:15.690Z,28.83
2018-01-23T00:57:42.326Z,28.95
2018-01-23T01:00:08.996Z,32.50
2018-01-23T01:05:37.371Z,32.03
2018-01-23T01:08:18.472Z,33.42
2018-01-23T01:10:45.493Z,31.00
2018-01-23T01:13:12.974Z,27.13
2018-01-23T01:15:39.706Z,33.85
2018-01-23T01:18:07.131Z,32.42
2018-01-23T01:20:44.508Z,32.95
2018-01-23T01:23:25.783Z,34.35
2018-01-23T01:25:54.598Z,28.33
2018-01-23T01:28:21.300Z,34.45
2018-01-23T01:30:47.957Z,32.17
2018-01-23T01:33:14.650Z,28.52
2018-01-23T01:35:42.033Z,31.70
2018-01-23T01:38:19.490Z,33.55
2018-01-23T01:40:46.312Z,32.85
2018-01-23T01:43:13.028Z,39.33
2018-01-23T01:45:39.767Z,29.40
2018-01-23T01:48:32.233Z,28.62
2018-01-23T01:50:58.994Z,28.95
2018-01-23T01:53:25.703Z,30.33
2018-01-23T01:55:52.382Z,33.28
2018-01-23T01:58:19.070Z,32.33
2018-01-23T02:01:03.855Z,31.60
2018-01-23T02:03:30.579Z,37.38
2018-01-23T02:05:58.034Z,32.40
2018-01-23T02:08:24.705Z,35.00
2018-01-23T02:13:52.618Z,30.35
2018-01-23T02:16:19.345Z,28.15
2018-01-23T02:18:46.034Z,28.17
2018-01-23T02:21:12.838Z,31.25
2018-01-23T02:23:46.054Z,31.48
2018-01-23T02:26:16.770Z,31.92
2018-01-23T02:28:43.462Z,29.75
2018-01-23T02:31:10.264Z,33.78
2018-01-23T02:33:36.949Z,30.85
2018-01-23T02:36:03.620Z,29.02
2018-01-23T02:38:41.688Z,28.05
2018-01-23T02:41:08.348Z,30.58
2018-01-23T02:43:35.141Z,33.47
2018-01-23T02:46:01.876Z,32.40
2018-01-23T02:48:28.568Z,30.12
2018-01-23T02:50:55.241Z,30.88
2018-01-23T02:53:22.679Z,33.17
2018-01-23T02:55:49.336Z,29.15
2018-01-23T02:58:16.034Z,32.53
2018-01-23T03:00:42.864Z,29.80
2018-01-23T03:03:09.530Z,31.17
2018-01-23T03:05:36.190Z,32.63
2018-01-23T03:08:02.922Z,35.47
2018-01-23T03:10:29.658Z,32.45
2018-01-23T03:13:03.571Z,29.52
2018-01-23T03:15:30.254Z,34.47
2018-01-23T03:18:04.896Z,33.92
2018-01-23T03:20:47.217Z,34.78
2018-01-23T03:23:14.639Z,33.88
2018-01-23T03:25:41.333Z,31.02
2018-01-23T03:28:07.983Z,35.17
2018-01-23T03:30:40.907Z,39.60
2018-01-23T03:33:07.641Z,40.38
2018-01-23T03:35:35.066Z,35.67
2018-01-23T03:38:01.806Z,37.42
2018-01-23T03:40:29.222Z,38.47
2018-01-23T03:42:55.906Z,39.40
2018-01-23T03:45:23.389Z,42.08
2018-01-23T03:47:50.046Z,38.72
2018-01-23T03:50:16.723Z,35.53
2018-01-23T03:52:43.440Z,37.05
2018-01-23T03:55:10.162Z,38.22
2018-01-23T03:57:41.041Z,39.90
2018-01-23T04:00:07.758Z,34.20
2018-01-23T04:02:34.439Z,39.40
2018-01-23T04:05:27.865Z,38.25
2018-01-23T04:07:54.537Z,38.65
2018-01-23T04:10:24.830Z,36.63
2018-01-23T04:12:51.531Z,37.25
2018-01-23T04:15:24.445Z,34.75
2018-01-23T04:17:51.099Z,36.97
2018-01-23T04:20:24.620Z,34.72
2018-01-23T04:22:56.356Z,39.10
2018-01-23T04:25:23.105Z,37.40
2018-01-23T04:27:49.880Z,35.95
2018-01-23T04:30:16.573Z,30.88
2018-01-23T04:32:44.020Z,32.63
2018-01-23T04:35:14.153Z,39.50
2018-01-23T04:37:44.771Z,33.55
2018-01-23T04:40:11.450Z,40.28
2018-01-23T04:42:44.695Z,34.55
2018-01-23T04:45:11.354Z,33.97
2018-01-23T04:47:52.606Z,39.88
2018-01-23T04:50:21.369Z,37.17
2018-01-23T04:52:48.079Z,33.83
2018-01-23T04:55:14.814Z,36.38
2018-01-23T04:57:41.488Z,37.40
2018-01-23T05:00:08.910Z,40.17
2018-01-23T05:02:35.625Z,35.65
2018-01-23T05:05:04.386Z,43.67
2018-01-23T05:07:36.821Z,33.80
2018-01-23T05:10:03.522Z,36.92
2018-01-23T05:12:30.202Z,35.67
2018-01-23T05:14:57.053Z,35.70
2018-01-23T05:17:23.814Z,36.78
2018-01-23T05:19:55.928Z,38.05
2018-01-23T05:22:22.621Z,39.35
2018-01-23T05:24:49.313Z,37.33
2018-01-23T05:27:15.966Z,43.75
2018-01-23T05:29:42.698Z,35.03
2018-01-23T05:32:09.394Z,39.33
2018-01-23T05:34:36.080Z,41.33
2018-01-23T05:37:02.752Z,46.08
2018-01-23T05:39:29.449Z,38.60
2018-01-23T05:41:56.834Z,38.85
2018-01-23T05:44:23.614Z,31.08
2018-01-23T05:46:50.330Z,34.65
2018-01-23T05:49:17.083Z,48.33
2018-01-23T05:51:43.811Z,38.42
2018-01-23T05:54:10.511Z,36.22
2018-01-23T05:56:37.223Z,37.55
2018-01-23T05:59:03.924Z,41.45
2018-01-23T06:01:31.350Z,38.38
2018-01-23T06:03:58.111Z,40.70
2018-01-23T06:06:25.610Z,42.45
2018-01-23T06:08:52.298Z,39.70
2018-01-23T06:11:18.977Z,35.97
2018-01-23T06:13:46.450Z,39.08
2018-01-23T06:16:13.131Z,40.17
2018-01-23T06:18:39.844Z,40.83
2018-01-23T06:21:06.648Z,39.60
2018-01-23T06:23:33.370Z,50.80
2018-01-23T06:26:00.142Z,48.28
2018-01-23T06:28:27.570Z,45.25
2018-01-23T06:30:54.309Z,44.53
2018-01-23T06:33:21.046Z,41.92
2018-01-23T06:35:47.837Z,40.15
2018-01-23T06:38:15.295Z,40.08
2018-01-23T06:40:42.028Z,42.08
2018-01-23T06:43:08.754Z,45.65
2018-01-23T06:45:35.449Z,45.85
2018-01-23T06:48:02.185Z,45.22
2018-01-23T06:50:29.717Z,40.38
2018-01-23T06:52:56.425Z,36.63
2018-01-23T06:55:23.097Z,53.60
2018-01-23T06:57:50.075Z,51.08
2018-01-23T07:00:20.998Z,55.33
2018-01-23T07:02:47.719Z,49.72
2018-01-23T07:05:14.559Z,38.35
2018-01-23T07:07:41.810Z,38.13
2018-01-23T07:10:08.617Z,35.47
2018-01-23T07:12:36.041Z,40.55
2018-01-23T07:15:02.784Z,39.17
2018-01-23T07:17:29.465Z,37.38
2018-01-23T07:19:56.919Z,36.92
2018-01-23T07:22:24.380Z,37.05
2018-01-23T07:24:51.817Z,34.22
2018-01-23T07:27:18.519Z,32.53
2018-01-23T07:29:45.240Z,37.40
2018-01-23T07:32:11.940Z,38.85
2018-01-23T07:34:38.653Z,34.75
2018-01-23T07:37:12.571Z,33.00
2018-01-23T07:39:39.412Z,32.03
2018-01-23T07:42:07.186Z,28.92
2018-01-23T07:44:33.930Z,31.42
2018-01-23T07:47:00.703Z,31.87
2018-01-23T07:49:27.378Z,32.38
2018-01-23T07:51:54.874Z,32.55
2018-01-23T07:54:21.572Z,38.72
2018-01-23T07:56:49.012Z,31.70
2018-01-23T07:59:15.713Z,33.03
2018-01-23T08:01:42.442Z,31.70
2018-01-23T08:04:09.211Z,36.70
2018-01-23T08:06:35.900Z,34.30
2018-01-23T08:09:02.805Z,27.60
2018-01-23T08:11:29.503Z,30.58
2018-01-23T08:13:56.246Z,28.45
2018-01-23T08:16:23.747Z,32.10
2018-01-23T08:18:50.454Z,27.83
2018-01-23T08:21:17.913Z,29.17
2018-01-23T08:23:45.456Z,28.05
2018-01-23T08:26:13.135Z,29.67
2018-01-23T08:28:39.865Z,29.67
2018-01-23T08:31:06.571Z,24.58
2018-01-23T08:33:33.331Z,26.58
2018-01-23T08:36:00.025Z,24.67
2018-01-23T08:38:27.492Z,27.65
2018-01-23T08:40:54.946Z,27.33
2018-01-23T08:43:22.446Z,31.27
2018-01-23T08:45:49.196Z,26.00
2018-01-23T08:48:15.962Z,29.37
2018-01-23T08:50:42.647Z,28.85
2018-01-23T08:53:09.436Z,27.83
2018-01-23T08:55:36.211Z,25.73
2018-01-23T08:58:03.005Z,33.40
2018-01-23T09:00:29.742Z,29.00
2018-01-23T09:02:56.495Z,25.27
2018-01-23T09:05:23.204Z,32.15
2018-01-23T09:07:50.687Z,27.73
2018-01-23T09:10:17.437Z,28.50
2018-01-23T09:12:44.132Z,28.77
2018-01-23T09:15:10.905Z,29.40
2018-01-23T09:17:38.340Z,26.70
2018-01-23T09:20:06.671Z,23.70
2018-01-23T09:22:35.034Z,21.13
2018-01-23T09:25:03.410Z,22.10
2018-01-23T09:27:30.898Z,23.43
2018-01-23T09:29:57.663Z,23.70
2018-01-23T09:32:24.387Z,19.97
2018-01-23T09:34:51.160Z,20.13
2018-01-23T09:37:17.887Z,22.70
2018-01-23T09:39:44.612Z,21.17
2018-01-23T09:42:11.368Z,20.60
2018-01-23T09:44:38.097Z,21.43
2018-01-23T09:47:05.560Z,22.00
2018-01-23T09:49:32.717Z,21.50
2018-01-23T09:52:01.112Z,20.90
2018-01-23T09:54:29.490Z,20.27
2018-01-23T09:56:57.836Z,19.97
2018-01-23T09:59:25.355Z,19.43
2018-01-23T10:01:52.109Z,19.53
2018-01-23T10:04:18.826Z,20.33
2018-01-23T10:06:47.221Z,18.30
2018-01-23T10:09:13.927Z,17.27
2018-01-23T10:11:41.410Z,19.60
2018-01-23T10:14:08.181Z,18.17
2018-01-23T10:16:34.908Z,20.23
2018-01-23T10:19:01.681Z,18.73
2018-01-23T10:21:28.426Z,18.57
2018-01-23T10:23:55.267Z,19.53
2018-01-23T10:26:22.033Z,20.10
2018-01-23T10:28:48.824Z,18.40
2018-01-23T10:31:15.568Z,19.40
2018-01-23T10:33:44.380Z,24.27
2018-01-23T10:36:11.175Z,24.53
2018-01-23T10:38:37.930Z,20.73
2018-01-23T10:41:05.415Z,20.60
2018-01-23T10:43:32.127Z,24.23
2018-01-23T10:45:59.636Z,21.07
2018-01-23T10:48:26.363Z,20.83
2018-01-23T10:50:53.143Z,20.50
2018-01-23T10:53:19.855Z,20.93
2018-01-23T10:55:46.665Z,20.07
2018-01-23T10:58:14.172Z,21.23
2018-01-23T11:00:46.813Z,22.00
2018-01-23T11:03:14.291Z,22.23
2018-01-23T11:05:41.792Z,20.67
2018-01-23T11:08:10.237Z,23.57
2018-01-23T11:10:37.365Z,22.00
2018-01-23T11:13:04.085Z,24.23
2018-01-23T11:15:30.804Z,24.43
2018-01-23T11:17:58.291Z,25.10
2018-01-23T11:20:25.064Z,28.60
2018-01-23T11:22:51.859Z,21.63
2018-01-23T11:25:18.654Z,23.03
2018-01-23T11:27:45.480Z,23.63
2018-01-23T11:30:12.341Z,23.70
2018-01-23T11:32:39.126Z,24.10
2018-01-23T11:35:05.858Z,22.77
2018-01-23T11:37:33.383Z,23.13
2018-01-23T11:40:00.162Z,24.50
2018-01-23T11:42:27.627Z,30.13
2018-01-23T11:44:55.115Z,24.17
2018-01-23T11:47:21.867Z,29.00
2018-01-23T11:49:48.598Z,22.50
2018-01-23T11:52:15.337Z,29.13
2018-01-23T11:54:42.107Z,20.53
2018-01-23T11:57:08.860Z,22.27
2018-01-23T11:59:35.596Z,22.00
2018-01-23T12:02:02.411Z,23.63
2018-01-23T12:04:29.135Z,21.43
2018-01-23T12:06:56.607Z,20.87
2018-01-23T12:09:24.087Z,21.47
2018-01-23T12:11:52.481Z,21.60
2018-01-23T12:14:19.951Z,23.43
2018-01-23T12:16:48.358Z,22.60
2018-01-23T12:19:16.805Z,22.37
2018-01-23T12:21:45.136Z,27.63
2018-01-23T12:24:11.909Z,25.50
2018-01-23T12:26:38.672Z,25.70
2018-01-23T12:29:05.369Z,25.10
2018-01-23T12:31:32.196Z,20.50
2018-01-23T12:33:58.942Z,26.40
2018-01-23T12:36:25.649Z,31.10
2018-01-23T12:38:52.410Z,30.50
2018-01-23T12:41:19.171Z,21.70
2018-01-23T12:43:45.845Z,21.30
2018-01-23T12:46:12.572Z,21.87
2018-01-23T12:48:39.285Z,20.07
2018-01-23T12:51:06.994Z,20.27
2018-01-23T12:53:33.704Z,18.50
2018-01-23T12:56:00.412Z,21.17
2018-01-23T12:58:27.148Z,18.97
2018-01-23T13:00:54.635Z,23.00
2018-01-23T13:03:21.312Z,18.97
2018-01-23T13:05:48.010Z,17.03
2018-01-23T13:08:14.745Z,17.23
2018-01-23T13:10:41.399Z,20.63
2018-01-23T13:13:08.087Z,21.17
2018-01-23T13:15:34.805Z,17.77
2018-01-23T13:18:01.494Z,19.70
2018-01-23T13:20:28.934Z,20.53
2018-01-23T13:22:55.649Z,18.10
2018-01-23T13:25:22.356Z,20.93
2018-01-23T13:27:49.895Z,20.00
2018-01-23T13:30:16.647Z,24.07
2018-01-23T13:32:44.137Z,17.70
2018-01-23T13:35:10.823Z,21.30
2018-01-23T13:37:37.602Z,27.67
2018-01-23T13:40:05.030Z,20.07
2018-01-23T13:42:31.705Z,19.00
2018-01-23T13:44:59.173Z,18.40
2018-01-23T13:47:26.620Z,19.53
2018-01-23T13:49:53.315Z,21.57
2018-01-23T13:52:20.019Z,20.90
2018-01-23T13:54:47.454Z,19.63
2018-01-23T13:57:14.181Z,18.53
2018-01-23T13:59:40.955Z,18.67
2018-01-23T14:02:07.652Z,20.13
2018-01-23T14:04:34.352Z,16.87
2018-01-23T14:07:01.814Z,24.03
2018-01-23T14:09:29.241Z,20.00
2018-01-23T14:11:55.966Z,18.80
2018-01-23T14:14:22.711Z,21.83
2018-01-23T14:16:49.428Z,17.50
2018-01-23T14:19:16.114Z,16.03
2018-01-23T14:21:42.858Z,22.07
2018-01-23T14:24:09.603Z,23.30
2018-01-23T14:26:36.303Z,20.57
2018-01-23T14:29:03.071Z,20.57
2018-01-23T14:31:29.743Z,22.30
2018-01-23T14:33:56.434Z,23.67
2018-01-23T14:36:23.141Z,23.07
2018-01-23T14:38:49.922Z,21.60
2018-01-23T14:41:16.737Z,22.30
2018-01-23T14:43:50.351Z,27.07
2018-01-23T14:46:17.808Z,30.70
2018-01-23T14:48:45.259Z,26.07
2018-01-23T14:51:11.973Z,21.47
2018-01-23T14:53:38.688Z,25.03
2018-01-23T14:56:05.393Z,32.87
2018-01-23T14:58:32.121Z,20.00
2018-01-23T15:00:58.841Z,21.60
2018-01-23T15:03:25.559Z,22.07
2018-01-23T15:05:52.320Z,22.70
2018-01-23T15:08:19.049Z,19.07
2018-01-23T15:10:45.799Z,21.77
2018-01-23T15:13:12.502Z,23.27
2018-01-23T15:15:39.186Z,23.53
2018-01-23T15:18:05.861Z,29.13
2018-01-23T15:20:32.561Z,22.47
2018-01-23T15:22:59.275Z,26.00
2018-01-23T15:25:25.995Z,30.70
2018-01-23T15:27:52.761Z,26.23
2018-01-23T15:30:19.506Z,26.67
2018-01-23T15:32:46.190Z,24.03
2018-01-23T15:35:12.890Z,27.10
2018-01-23T15:37:39.610Z,20.37
2018-01-23T15:40:06.362Z,25.30
2018-01-23T15:42:33.112Z,28.00
2018-01-23T15:44:59.801Z,34.47
2018-01-23T15:47:26.546Z,29.27
2018-01-23T15:49:53.334Z,28.53
2018-01-23T15:52:20.029Z,31.23
2018-01-23T15:54:46.721Z,29.03
2018-01-23T15:57:13.405Z,28.13
2018-01-23T15:59:40.867Z,34.27
2018-01-23T16:02:08.312Z,30.03
2018-01-23T16:04:35.063Z,25.80
2018-01-23T16:07:02.512Z,31.37
2018-01-23T16:09:29.193Z,26.23
2018-01-23T16:11:55.979Z,23.02
2018-01-23T16:14:22.686Z,31.90
2018-01-23T16:16:49.398Z,29.30
2018-01-23T16:19:16.894Z,30.47
2018-01-23T16:21:43.594Z,32.80
2018-01-23T16:24:10.311Z,32.23
2018-01-23T16:26:37.005Z,30.60
2018-01-23T16:29:03.731Z,30.60
2018-01-23T16:31:30.498Z,33.03
2018-01-23T16:33:57.217Z,32.30
2018-01-23T16:36:24.678Z,41.97
2018-01-23T16:38:52.132Z,35.47
2018-01-23T16:41:18.848Z,30.37
2018-01-23T16:43:45.538Z,33.90
2018-01-23T16:46:12.305Z,30.90
2018-01-23T16:48:39.050Z,42.83
2018-01-23T16:51:05.785Z,37.35
2018-01-23T16:53:32.574Z,40.80
2018-01-23T16:55:59.278Z,30.70
2018-01-23T16:58:26.040Z,26.80
2018-01-23T17:00:52.792Z,30.83
2018-01-23T17:03:20.562Z,41.33
2018-01-23T17:05:47.311Z,33.92
2018-01-23T17:08:14.028Z,31.33
2018-01-23T17:10:40.752Z,36.33
2018-01-23T17:13:08.198Z,33.60
2018-01-23T17:15:35.680Z,37.27
2018-01-23T17:18:02.396Z,31.77
2018-01-23T17:20:29.103Z,30.30
2018-01-23T17:22:56.576Z,32.30
2018-01-23T17:25:23.321Z,30.57
2018-01-23T17:27:50.153Z,36.45
2018-01-23T17:30:16.850Z,30.85
2018-01-23T17:32:44.405Z,33.70
2018-01-23T17:35:11.151Z,32.90
2018-01-23T17:37:38.627Z,33.87
2018-01-23T17:40:06.206Z,37.50
2018-01-23T17:42:32.911Z,33.78
2018-01-23T17:44:59.617Z,38.23
2018-01-23T17:47:26.408Z,37.35
2018-01-23T17:49:53.139Z,46.60
2018-01-23T17:52:19.835Z,44.23
2018-01-23T17:54:46.556Z,36.30
2018-01-23T17:57:13.334Z,32.10
2018-01-23T17:59:40.066Z,28.53
2018-01-23T18:02:10.593Z,35.20
2018-01-23T18:04:37.318Z,34.37
2018-01-23T18:07:04.738Z,36.10
2018-01-23T18:09:31.566Z,33.43
2018-01-23T18:11:58.254Z,45.20
2018-01-23T18:14:24.926Z,43.10
2018-01-23T18:16:51.650Z,38.17
2018-01-23T18:19:19.122Z,36.63
2018-01-23T18:21:45.881Z,33.70
2018-01-23T18:24:12.665Z,38.57
2018-01-23T18:26:39.407Z,39.57
2018-01-23T18:29:06.137Z,39.00
2018-01-23T18:31:32.936Z,39.33
2018-01-23T18:34:00.470Z,43.53
2018-01-23T18:36:27.161Z,41.13
2018-01-23T18:38:53.921Z,37.90
2018-01-23T18:41:20.673Z,36.07
2018-01-23T18:43:47.446Z,37.90
2018-01-23T18:46:14.214Z,47.50
2018-01-23T18:48:42.838Z,34.50
2018-01-23T18:51:09.553Z,34.80
2018-01-23T18:53:36.311Z,38.63
2018-01-23T18:56:03.059Z,35.80
2018-01-23T18:58:29.809Z,37.30
2018-01-23T19:00:56.570Z,35.40
2018-01-23T19:03:23.318Z,35.63
2018-01-23T19:05:50.015Z,39.53
2018-01-23T19:08:17.506Z,40.33
2018-01-23T19:10:44.284Z,40.67
2018-01-23T19:13:11.051Z,39.63
2018-01-23T19:15:37.795Z,38.90
2018-01-23T19:18:04.549Z,34.85
2018-01-23T19:20:32.030Z,36.03
2018-01-23T19:22:58.794Z,35.73
2018-01-23T19:25:25.581Z,36.83
2018-01-23T19:27:52.321Z,34.38
2018-01-23T19:30:19.131Z,36.47
2018-01-23T19:32:45.863Z,33.40
2018-01-23T19:35:12.623Z,31.67
2018-01-23T19:37:39.376Z,32.75
2018-01-23T19:40:06.119Z,32.22
2018-01-23T19:42:32.822Z,37.45
2018-01-23T19:45:00.509Z,39.25
2018-01-23T19:47:27.546Z,35.03
2018-01-23T19:49:54.314Z,35.92
2018-01-23T19:52:21.097Z,40.25
2018-01-23T19:54:51.285Z,31.67
2018-01-23T19:57:18.074Z,37.75
2018-01-23T19:59:44.913Z,32.60
2018-01-23T20:02:11.908Z,32.58
2018-01-23T20:04:38.717Z,36.00
2018-01-23T20:07:05.587Z,37.53
2018-01-23T20:09:32.536Z,34.10
2018-01-23T20:12:00.341Z,35.50
2018-01-23T20:14:27.139Z,35.47
2018-01-23T20:16:54.920Z,32.65
2018-01-23T20:19:21.722Z,32.88
2018-01-23T20:21:49.491Z,33.15
2018-01-23T20:24:17.035Z,37.53
2018-01-23T20:26:43.739Z,40.60
2018-01-23T20:29:11.226Z,32.88
2018-01-23T20:31:38.093Z,37.75
2018-01-23T20:34:04.826Z,39.70
2018-01-23T20:36:31.601Z,35.00
2018-01-23T20:38:58.303Z,36.20
2018-01-23T20:41:25.027Z,44.40
2018-01-23T20:43:52.573Z,36.22
2018-01-23T20:46:19.266Z,40.33
2018-01-23T20:48:46.058Z,40.35
2018-01-23T20:51:12.827Z,41.08
2018-01-23T20:53:39.574Z,38.22
2018-01-23T20:56:07.024Z,40.75
2018-01-23T20:58:34.548Z,42.25
2018-01-23T21:01:01.260Z,48.87
2018-01-23T21:03:28.006Z,39.45
2018-01-23T21:05:54.771Z,43.67
2018-01-23T21:08:21.454Z,47.47
2018-01-23T21:10:48.214Z,39.10
2018-01-23T21:13:15.670Z,43.97
2018-01-23T21:15:43.141Z,45.25
2018-01-23T21:18:10.623Z,42.62
2018-01-23T21:20:37.491Z,41.90
2018-01-23T21:23:04.287Z,44.10
2018-01-23T21:25:31.717Z,42.72
2018-01-23T21:27:58.409Z,50.45
2018-01-23T21:30:25.200Z,50.40
2018-01-23T21:32:51.983Z,50.72
2018-01-23T21:35:19.444Z,57.95
2018-01-23T21:37:46.924Z,49.30
2018-01-23T21:40:13.605Z,43.30
2018-01-23T21:42:41.114Z,48.58
2018-01-23T21:45:08.683Z,55.75
2018-01-23T21:47:36.212Z,55.17
2018-01-23T21:50:03.095Z,49.88
2018-01-23T21:52:29.978Z,47.62
2018-01-23T21:54:56.677Z,51.45
2018-01-23T21:57:24.122Z,46.05
2018-01-23T21:59:50.899Z,50.50
2018-01-23T22:02:17.621Z,53.67
2018-01-23T22:04:45.245Z,49.17
2018-01-23T22:07:12.194Z,40.70
2018-01-23T22:09:38.856Z,53.60
2018-01-23T22:12:05.585Z,44.10
2018-01-23T22:14:32.308Z,49.65
2018-01-23T22:16:59.010Z,44.38
2018-01-23T22:19:26.475Z,48.17
2018-01-23T22:21:53.913Z,47.47
2018-01-23T22:24:20.579Z,40.58
2018-01-23T22:26:47.996Z,39.25
2018-01-23T22:29:14.678Z,40.40
2018-01-23T22:31:42.200Z,37.22
2018-01-23T22:34:08.980Z,41.33
2018-01-23T22:36:36.404Z,38.67
2018-01-23T22:39:03.253Z,43.03
2018-01-23T22:41:29.925Z,42.70
2018-01-23T22:43:56.590Z,39.38
2018-01-23T22:46:24.032Z,44.38
2018-01-23T22:48:51.545Z,43.60
2018-01-23T22:51:18.262Z,41.67
2018-01-23T22:53:45.029Z,38.78
2018-01-23T22:56:11.724Z,41.65
2018-01-23T22:58:39.173Z,38.28
2018-01-23T23:01:05.901Z,52.80
2018-01-23T23:03:33.029Z,42.78
2018-01-23T23:05:59.686Z,43.15
2018-01-23T23:08:26.413Z,41.97
2018-01-23T23:10:53.154Z,50.67
2018-01-23T23:13:19.841Z,49.80
2018-01-23T23:15:46.590Z,47.85
2018-01-23T23:18:13.314Z,46.05
2018-01-23T23:20:40.008Z,41.70
2018-01-23T23:23:06.751Z,40.08
2018-01-23T23:25:33.453Z,46.45
2018-01-23T23:28:00.252Z,48.78
2018-01-23T23:30:26.946Z,42.72
2018-01-23T23:32:53.645Z,41.70
2018-01-23T23:35:20.376Z,46.65
2018-01-23T23:37:47.030Z,42.47
2018-01-23T23:40:13.782Z,45.22
2018-01-23T23:42:40.493Z,44.80
2018-01-23T23:45:07.900Z,47.53
2018-01-23T23:47:34.619Z,49.25
2018-01-23T23:50:01.298Z,47.38
2018-01-23T23:52:27.983Z,52.88
2018-01-23T23:54:55.428Z,47.62
2018-01-23T23:57:22.098Z,41.63
2018-01-23T23:59:48.786Z,49.42
